sensor_id;sensor_type;location;lat;lon;timestamp;P1;durP1;ratioP1;P2;durP2;ratioP2
12350;SDS011;6240;51.538;7.696;2023-02-11T00:01:26;29.03;;;21.40;;
12350;SDS011;6240;51.538;7.696;2023-02-11T00:03:53;35.97;;;21.67;;
12350;SDS011;6240;51.538;7.696;2023-02-11T00:06:22;32.50;;;20.53;;
12350;SDS011;6240;51.538;7.696;2023-02-11T00:08:49;29.63;;;20.33;;
12350;SDS011;6240;51.538;7.696;2023-02-11T00:11:17;29.43;;;20.10;;
12350;SDS011;6240;51.538;7.696;2023-02-11T00:13:45;31.03;;;20.13;;
12350;SDS011;6240;51.538;7.696;2023-02-11T00:16:14;34.10;;;20.30;;
12350;SDS011;6240;51.538;7.696;2023-02-11T00:18:42;32.73;;;21.03;;
12350;SDS011;6240;51.538;7.696;2023-02-11T00:21:10;31.70;;;20.63;;
12350;SDS011;6240;51.538;7.696;2023-02-11T00:23:37;31.83;;;20.83;;
12350;SDS011;6240;51.538;7.696;2023-02-11T00:26:10;34.00;;;22.00;;
12350;SDS011;6240;51.538;7.696;2023-02-11T00:28:37;33.97;;;22.50;;
12350;SDS011;6240;51.538;7.696;2023-02-11T00:31:04;30.80;;;20.30;;
12350;SDS011;6240;51.538;7.696;2023-02-11T00:33:33;32.90;;;19.87;;
12350;SDS011;6240;51.538;7.696;2023-02-11T00:36:02;31.90;;;20.53;;
12350;SDS011;6240;51.538;7.696;2023-02-11T00:38:29;31.47;;;20.00;;
12350;SDS011;6240;51.538;7.696;2023-02-11T00:40:58;30.20;;;21.13;;
12350;SDS011;6240;51.538;7.696;2023-02-11T00:43:25;30.83;;;20.30;;
12350;SDS011;6240;51.538;7.696;2023-02-11T00:45:52;33.03;;;20.57;;
12350;SDS011;6240;51.538;7.696;2023-02-11T00:48:20;32.30;;;20.47;;
12350;SDS011;6240;51.538;7.696;2023-02-11T00:50:58;28.80;;;20.37;;
12350;SDS011;6240;51.538;7.696;2023-02-11T00:53:28;28.20;;;19.73;;
12350;SDS011;6240;51.538;7.696;2023-02-11T00:55:55;32.83;;;20.30;;
12350;SDS011;6240;51.538;7.696;2023-02-11T00:58:22;30.17;;;19.90;;
12350;SDS011;6240;51.538;7.696;2023-02-11T01:00:50;32.63;;;20.73;;
12350;SDS011;6240;51.538;7.696;2023-02-11T01:03:17;29.13;;;20.43;;
12350;SDS011;6240;51.538;7.696;2023-02-11T01:05:44;29.57;;;20.87;;
12350;SDS011;6240;51.538;7.696;2023-02-11T01:08:13;29.73;;;20.43;;
12350;SDS011;6240;51.538;7.696;2023-02-11T01:10:40;32.90;;;20.17;;
12350;SDS011;6240;51.538;7.696;2023-02-11T01:13:08;31.73;;;20.50;;
12350;SDS011;6240;51.538;7.696;2023-02-11T01:15:35;34.90;;;20.70;;
12350;SDS011;6240;51.538;7.696;2023-02-11T01:18:03;36.07;;;21.50;;
12350;SDS011;6240;51.538;7.696;2023-02-11T01:20:30;32.33;;;20.03;;
12350;SDS011;6240;51.538;7.696;2023-02-11T01:22:57;29.23;;;20.70;;
12350;SDS011;6240;51.538;7.696;2023-02-11T01:25:26;30.53;;;20.23;;
12350;SDS011;6240;51.538;7.696;2023-02-11T01:27:53;31.67;;;20.70;;
12350;SDS011;6240;51.538;7.696;2023-02-11T01:30:21;35.20;;;20.27;;
12350;SDS011;6240;51.538;7.696;2023-02-11T01:32:48;33.33;;;21.17;;
12350;SDS011;6240;51.538;7.696;2023-02-11T01:35:16;25.40;;;19.23;;
12350;SDS011;6240;51.538;7.696;2023-02-11T01:37:43;32.27;;;19.60;;
12350;SDS011;6240;51.538;7.696;2023-02-11T01:40:11;31.77;;;20.17;;
12350;SDS011;6240;51.538;7.696;2023-02-11T01:42:40;30.50;;;19.87;;
12350;SDS011;6240;51.538;7.696;2023-02-11T01:47:49;28.53;;;19.23;;
12350;SDS011;6240;51.538;7.696;2023-02-11T01:50:22;26.93;;;19.80;;
12350;SDS011;6240;51.538;7.696;2023-02-11T01:52:49;28.83;;;20.00;;
12350;SDS011;6240;51.538;7.696;2023-02-11T01:55:16;30.27;;;19.67;;
12350;SDS011;6240;51.538;7.696;2023-02-11T01:58:03;28.97;;;19.50;;
12350;SDS011;6240;51.538;7.696;2023-02-11T02:00:32;31.60;;;19.37;;
12350;SDS011;6240;51.538;7.696;2023-02-11T02:03:01;29.77;;;18.97;;
12350;SDS011;6240;51.538;7.696;2023-02-11T02:05:29;27.60;;;18.93;;
12350;SDS011;6240;51.538;7.696;2023-02-11T02:07:59;27.83;;;19.10;;
12350;SDS011;6240;51.538;7.696;2023-02-11T02:10:29;31.53;;;19.83;;
12350;SDS011;6240;51.538;7.696;2023-02-11T02:12:56;29.80;;;19.33;;
12350;SDS011;6240;51.538;7.696;2023-02-11T02:15:27;29.00;;;18.23;;
12350;SDS011;6240;51.538;7.696;2023-02-11T02:18:01;27.23;;;19.00;;
12350;SDS011;6240;51.538;7.696;2023-02-11T02:23:34;29.73;;;19.57;;
12350;SDS011;6240;51.538;7.696;2023-02-11T02:26:15;27.23;;;18.90;;
12350;SDS011;6240;51.538;7.696;2023-02-11T02:28:51;32.90;;;19.83;;
12350;SDS011;6240;51.538;7.696;2023-02-11T02:31:28;29.23;;;19.67;;
12350;SDS011;6240;51.538;7.696;2023-02-11T02:34:01;32.67;;;19.57;;
12350;SDS011;6240;51.538;7.696;2023-02-11T02:36:30;27.93;;;19.03;;
12350;SDS011;6240;51.538;7.696;2023-02-11T02:39:04;30.90;;;19.80;;
12350;SDS011;6240;51.538;7.696;2023-02-11T02:41:32;31.93;;;20.60;;
12350;SDS011;6240;51.538;7.696;2023-02-11T02:44:00;26.70;;;19.20;;
12350;SDS011;6240;51.538;7.696;2023-02-11T02:46:28;29.53;;;20.07;;
12350;SDS011;6240;51.538;7.696;2023-02-11T02:48:56;29.03;;;20.37;;
12350;SDS011;6240;51.538;7.696;2023-02-11T02:51:32;28.43;;;20.03;;
12350;SDS011;6240;51.538;7.696;2023-02-11T02:54:19;31.27;;;20.33;;
12350;SDS011;6240;51.538;7.696;2023-02-11T02:56:49;32.10;;;21.53;;
12350;SDS011;6240;51.538;7.696;2023-02-11T02:59:25;31.57;;;20.93;;
12350;SDS011;6240;51.538;7.696;2023-02-11T03:01:55;30.43;;;20.97;;
12350;SDS011;6240;51.538;7.696;2023-02-11T03:04:25;32.60;;;21.60;;
12350;SDS011;6240;51.538;7.696;2023-02-11T03:06:59;33.43;;;20.97;;
12350;SDS011;6240;51.538;7.696;2023-02-11T03:09:29;32.33;;;22.53;;
12350;SDS011;6240;51.538;7.696;2023-02-11T03:11:57;32.07;;;21.60;;
12350;SDS011;6240;51.538;7.696;2023-02-11T03:14:26;34.60;;;21.80;;
12350;SDS011;6240;51.538;7.696;2023-02-11T03:16:54;28.50;;;21.57;;
12350;SDS011;6240;51.538;7.696;2023-02-11T03:19:23;31.40;;;21.90;;
12350;SDS011;6240;51.538;7.696;2023-02-11T03:21:52;27.90;;;20.90;;
12350;SDS011;6240;51.538;7.696;2023-02-11T03:24:23;29.37;;;20.93;;
12350;SDS011;6240;51.538;7.696;2023-02-11T03:26:52;31.67;;;21.57;;
12350;SDS011;6240;51.538;7.696;2023-02-11T03:29:23;30.30;;;21.60;;
12350;SDS011;6240;51.538;7.696;2023-02-11T03:31:54;34.13;;;20.43;;
12350;SDS011;6240;51.538;7.696;2023-02-11T03:34:22;31.60;;;20.50;;
12350;SDS011;6240;51.538;7.696;2023-02-11T03:36:54;29.07;;;20.83;;
12350;SDS011;6240;51.538;7.696;2023-02-11T03:39:24;32.87;;;22.37;;
12350;SDS011;6240;51.538;7.696;2023-02-11T03:41:53;32.73;;;21.97;;
12350;SDS011;6240;51.538;7.696;2023-02-11T03:44:22;30.90;;;22.27;;
12350;SDS011;6240;51.538;7.696;2023-02-11T03:46:52;28.90;;;21.27;;
12350;SDS011;6240;51.538;7.696;2023-02-11T03:49:20;34.37;;;21.83;;
12350;SDS011;6240;51.538;7.696;2023-02-11T03:51:49;32.67;;;22.27;;
12350;SDS011;6240;51.538;7.696;2023-02-11T03:54:17;31.30;;;22.37;;
12350;SDS011;6240;51.538;7.696;2023-02-11T03:56:47;32.77;;;20.83;;
12350;SDS011;6240;51.538;7.696;2023-02-11T03:59:15;30.50;;;21.17;;
12350;SDS011;6240;51.538;7.696;2023-02-11T04:01:42;34.47;;;21.60;;
12350;SDS011;6240;51.538;7.696;2023-02-11T04:04:09;35.73;;;20.43;;
12350;SDS011;6240;51.538;7.696;2023-02-11T04:06:37;34.07;;;22.20;;
12350;SDS011;6240;51.538;7.696;2023-02-11T04:09:04;31.90;;;21.10;;
12350;SDS011;6240;51.538;7.696;2023-02-11T04:11:31;36.27;;;21.30;;
12350;SDS011;6240;51.538;7.696;2023-02-11T04:14:00;30.50;;;20.77;;
12350;SDS011;6240;51.538;7.696;2023-02-11T04:16:27;33.87;;;21.73;;
12350;SDS011;6240;51.538;7.696;2023-02-11T04:18:55;32.47;;;21.77;;
12350;SDS011;6240;51.538;7.696;2023-02-11T04:21:22;33.33;;;22.90;;
12350;SDS011;6240;51.538;7.696;2023-02-11T04:23:49;31.70;;;21.93;;
12350;SDS011;6240;51.538;7.696;2023-02-11T04:26:16;36.13;;;22.23;;
12350;SDS011;6240;51.538;7.696;2023-02-11T04:28:43;30.43;;;21.57;;
12350;SDS011;6240;51.538;7.696;2023-02-11T04:31:12;34.33;;;21.83;;
12350;SDS011;6240;51.538;7.696;2023-02-11T04:33:39;32.77;;;22.33;;
12350;SDS011;6240;51.538;7.696;2023-02-11T04:36:06;38.03;;;23.10;;
12350;SDS011;6240;51.538;7.696;2023-02-11T04:38:34;33.20;;;23.57;;
12350;SDS011;6240;51.538;7.696;2023-02-11T04:41:01;34.07;;;22.37;;
12350;SDS011;6240;51.538;7.696;2023-02-11T04:43:28;33.40;;;22.93;;
12350;SDS011;6240;51.538;7.696;2023-02-11T04:45:55;34.33;;;22.70;;
12350;SDS011;6240;51.538;7.696;2023-02-11T04:48:24;38.93;;;23.53;;
12350;SDS011;6240;51.538;7.696;2023-02-11T04:50:52;32.33;;;23.23;;
12350;SDS011;6240;51.538;7.696;2023-02-11T04:53:19;35.77;;;23.47;;
12350;SDS011;6240;51.538;7.696;2023-02-11T04:55:47;36.70;;;24.03;;
12350;SDS011;6240;51.538;7.696;2023-02-11T04:58:14;39.93;;;24.30;;
12350;SDS011;6240;51.538;7.696;2023-02-11T05:00:41;37.33;;;25.40;;
12350;SDS011;6240;51.538;7.696;2023-02-11T05:03:09;36.37;;;23.10;;
12350;SDS011;6240;51.538;7.696;2023-02-11T05:05:38;40.83;;;25.23;;
12350;SDS011;6240;51.538;7.696;2023-02-11T05:08:05;37.40;;;24.60;;
12350;SDS011;6240;51.538;7.696;2023-02-11T05:10:33;33.77;;;23.23;;
12350;SDS011;6240;51.538;7.696;2023-02-11T05:13:00;41.67;;;25.07;;
12350;SDS011;6240;51.538;7.696;2023-02-11T05:15:27;38.03;;;24.47;;
12350;SDS011;6240;51.538;7.696;2023-02-11T05:17:55;37.87;;;24.60;;
12350;SDS011;6240;51.538;7.696;2023-02-11T05:20:22;39.80;;;25.53;;
12350;SDS011;6240;51.538;7.696;2023-02-11T05:22:51;39.77;;;25.27;;
12350;SDS011;6240;51.538;7.696;2023-02-11T05:25:18;37.23;;;25.00;;
12350;SDS011;6240;51.538;7.696;2023-02-11T05:27:46;35.63;;;25.03;;
12350;SDS011;6240;51.538;7.696;2023-02-11T05:30:17;41.03;;;25.60;;
12350;SDS011;6240;51.538;7.696;2023-02-11T05:32:46;40.83;;;25.87;;
12350;SDS011;6240;51.538;7.696;2023-02-11T05:35:13;39.40;;;25.30;;
12350;SDS011;6240;51.538;7.696;2023-02-11T05:37:40;38.73;;;24.73;;
12350;SDS011;6240;51.538;7.696;2023-02-11T05:40:09;42.57;;;26.03;;
12350;SDS011;6240;51.538;7.696;2023-02-11T05:42:36;39.47;;;25.10;;
12350;SDS011;6240;51.538;7.696;2023-02-11T05:45:04;40.97;;;25.80;;
12350;SDS011;6240;51.538;7.696;2023-02-11T05:47:31;39.20;;;25.50;;
12350;SDS011;6240;51.538;7.696;2023-02-11T05:49:58;38.00;;;26.97;;
12350;SDS011;6240;51.538;7.696;2023-02-11T05:52:25;35.27;;;24.83;;
12350;SDS011;6240;51.538;7.696;2023-02-11T05:54:53;37.03;;;24.93;;
12350;SDS011;6240;51.538;7.696;2023-02-11T05:57:21;39.30;;;27.37;;
12350;SDS011;6240;51.538;7.696;2023-02-11T05:59:48;35.93;;;24.63;;
12350;SDS011;6240;51.538;7.696;2023-02-11T06:02:16;39.33;;;24.93;;
12350;SDS011;6240;51.538;7.696;2023-02-11T06:04:43;40.10;;;26.47;;
12350;SDS011;6240;51.538;7.696;2023-02-11T06:07:10;34.83;;;24.57;;
12350;SDS011;6240;51.538;7.696;2023-02-11T06:09:37;42.13;;;26.03;;
12350;SDS011;6240;51.538;7.696;2023-02-11T06:12:04;45.03;;;26.83;;
12350;SDS011;6240;51.538;7.696;2023-02-11T06:14:33;42.07;;;27.63;;
12350;SDS011;6240;51.538;7.696;2023-02-11T06:17:00;41.50;;;27.23;;
12350;SDS011;6240;51.538;7.696;2023-02-11T06:19:28;40.77;;;26.10;;
12350;SDS011;6240;51.538;7.696;2023-02-11T06:21:55;48.30;;;27.33;;
12350;SDS011;6240;51.538;7.696;2023-02-11T06:24:22;43.93;;;26.97;;
12350;SDS011;6240;51.538;7.696;2023-02-11T06:26:50;41.27;;;26.83;;
12350;SDS011;6240;51.538;7.696;2023-02-11T06:29:17;49.67;;;28.23;;
12350;SDS011;6240;51.538;7.696;2023-02-11T06:31:45;44.23;;;28.20;;
12350;SDS011;6240;51.538;7.696;2023-02-11T06:34:12;48.30;;;28.00;;
12350;SDS011;6240;51.538;7.696;2023-02-11T06:36:39;46.93;;;29.53;;
12350;SDS011;6240;51.538;7.696;2023-02-11T06:39:08;45.13;;;27.70;;
12350;SDS011;6240;51.538;7.696;2023-02-11T06:41:36;45.40;;;27.70;;
12350;SDS011;6240;51.538;7.696;2023-02-11T06:44:03;44.07;;;27.57;;
12350;SDS011;6240;51.538;7.696;2023-02-11T06:46:30;46.67;;;27.93;;
12350;SDS011;6240;51.538;7.696;2023-02-11T06:48:59;44.20;;;27.57;;
12350;SDS011;6240;51.538;7.696;2023-02-11T06:51:26;43.47;;;28.77;;
12350;SDS011;6240;51.538;7.696;2023-02-11T06:53:53;45.83;;;28.87;;
12350;SDS011;6240;51.538;7.696;2023-02-11T06:56:22;46.73;;;29.20;;
12350;SDS011;6240;51.538;7.696;2023-02-11T06:58:51;51.30;;;29.47;;
12350;SDS011;6240;51.538;7.696;2023-02-11T07:01:20;48.00;;;29.60;;
12350;SDS011;6240;51.538;7.696;2023-02-11T07:03:47;44.37;;;29.13;;
12350;SDS011;6240;51.538;7.696;2023-02-11T07:06:17;47.83;;;29.27;;
12350;SDS011;6240;51.538;7.696;2023-02-11T07:08:44;50.13;;;29.50;;
12350;SDS011;6240;51.538;7.696;2023-02-11T07:11:12;46.60;;;29.90;;
12350;SDS011;6240;51.538;7.696;2023-02-11T07:13:41;46.73;;;30.00;;
12350;SDS011;6240;51.538;7.696;2023-02-11T07:16:09;52.17;;;29.53;;
12350;SDS011;6240;51.538;7.696;2023-02-11T07:18:36;48.23;;;28.47;;
12350;SDS011;6240;51.538;7.696;2023-02-11T07:21:04;53.37;;;30.07;;
12350;SDS011;6240;51.538;7.696;2023-02-11T07:23:33;49.30;;;30.80;;
12350;SDS011;6240;51.538;7.696;2023-02-11T07:26:01;57.13;;;32.10;;
12350;SDS011;6240;51.538;7.696;2023-02-11T07:28:29;50.07;;;30.53;;
12350;SDS011;6240;51.538;7.696;2023-02-11T07:30:56;52.70;;;31.17;;
12350;SDS011;6240;51.538;7.696;2023-02-11T07:33:24;57.27;;;31.80;;
12350;SDS011;6240;51.538;7.696;2023-02-11T07:35:51;51.33;;;30.53;;
12350;SDS011;6240;51.538;7.696;2023-02-11T07:38:18;50.80;;;31.27;;
12350;SDS011;6240;51.538;7.696;2023-02-11T07:40:46;57.40;;;32.60;;
12350;SDS011;6240;51.538;7.696;2023-02-11T07:43:14;55.73;;;32.33;;
12350;SDS011;6240;51.538;7.696;2023-02-11T07:45:41;53.83;;;33.10;;
12350;SDS011;6240;51.538;7.696;2023-02-11T07:48:08;54.47;;;30.77;;
12350;SDS011;6240;51.538;7.696;2023-02-11T07:50:36;53.90;;;32.70;;
12350;SDS011;6240;51.538;7.696;2023-02-11T07:53:08;56.43;;;31.80;;
12350;SDS011;6240;51.538;7.696;2023-02-11T07:55:38;58.47;;;32.30;;
12350;SDS011;6240;51.538;7.696;2023-02-11T07:58:06;61.83;;;33.57;;
12350;SDS011;6240;51.538;7.696;2023-02-11T08:00:33;55.70;;;33.67;;
12350;SDS011;6240;51.538;7.696;2023-02-11T08:03:01;59.40;;;32.77;;
12350;SDS011;6240;51.538;7.696;2023-02-11T08:05:29;68.13;;;35.27;;
12350;SDS011;6240;51.538;7.696;2023-02-11T08:07:56;56.33;;;33.50;;
12350;SDS011;6240;51.538;7.696;2023-02-11T08:10:23;56.73;;;33.00;;
12350;SDS011;6240;51.538;7.696;2023-02-11T08:12:50;63.47;;;34.17;;
12350;SDS011;6240;51.538;7.696;2023-02-11T08:15:22;63.83;;;35.63;;
12350;SDS011;6240;51.538;7.696;2023-02-11T08:17:49;61.80;;;33.73;;
12350;SDS011;6240;51.538;7.696;2023-02-11T08:20:16;65.67;;;34.30;;
12350;SDS011;6240;51.538;7.696;2023-02-11T08:22:44;66.53;;;36.60;;
12350;SDS011;6240;51.538;7.696;2023-02-11T08:25:12;65.57;;;34.20;;
12350;SDS011;6240;51.538;7.696;2023-02-11T08:27:40;64.73;;;35.10;;
12350;SDS011;6240;51.538;7.696;2023-02-11T08:30:09;61.17;;;33.57;;
12350;SDS011;6240;51.538;7.696;2023-02-11T08:32:37;62.87;;;34.50;;
12350;SDS011;6240;51.538;7.696;2023-02-11T08:35:05;63.53;;;34.00;;
12350;SDS011;6240;51.538;7.696;2023-02-11T08:37:33;71.10;;;36.13;;
12350;SDS011;6240;51.538;7.696;2023-02-11T08:40:00;66.67;;;34.77;;
12350;SDS011;6240;51.538;7.696;2023-02-11T08:42:27;66.60;;;36.57;;
12350;SDS011;6240;51.538;7.696;2023-02-11T08:44:54;70.33;;;36.43;;
12350;SDS011;6240;51.538;7.696;2023-02-11T08:47:21;71.47;;;37.83;;
12350;SDS011;6240;51.538;7.696;2023-02-11T08:49:50;69.90;;;35.60;;
12350;SDS011;6240;51.538;7.696;2023-02-11T08:52:17;72.57;;;38.47;;
12350;SDS011;6240;51.538;7.696;2023-02-11T08:54:45;73.17;;;36.47;;
12350;SDS011;6240;51.538;7.696;2023-02-11T08:57:12;67.63;;;36.10;;
12350;SDS011;6240;51.538;7.696;2023-02-11T08:59:39;78.73;;;38.23;;
12350;SDS011;6240;51.538;7.696;2023-02-11T09:02:08;78.87;;;37.03;;
12350;SDS011;6240;51.538;7.696;2023-02-11T09:04:37;80.87;;;39.23;;
12350;SDS011;6240;51.538;7.696;2023-02-11T09:07:05;76.23;;;38.63;;
12350;SDS011;6240;51.538;7.696;2023-02-11T09:09:33;72.03;;;36.63;;
12350;SDS011;6240;51.538;7.696;2023-02-11T09:12:01;78.67;;;36.13;;
12350;SDS011;6240;51.538;7.696;2023-02-11T09:14:28;77.00;;;37.37;;
12350;SDS011;6240;51.538;7.696;2023-02-11T09:16:55;77.17;;;36.87;;
12350;SDS011;6240;51.538;7.696;2023-02-11T09:19:24;70.37;;;37.53;;
12350;SDS011;6240;51.538;7.696;2023-02-11T09:21:51;75.30;;;36.47;;
12350;SDS011;6240;51.538;7.696;2023-02-11T09:24:19;70.77;;;37.40;;
12350;SDS011;6240;51.538;7.696;2023-02-11T09:26:46;78.37;;;37.97;;
12350;SDS011;6240;51.538;7.696;2023-02-11T09:29:14;75.23;;;37.33;;
12350;SDS011;6240;51.538;7.696;2023-02-11T09:31:42;71.83;;;36.20;;
12350;SDS011;6240;51.538;7.696;2023-02-11T09:34:09;74.43;;;36.43;;
12350;SDS011;6240;51.538;7.696;2023-02-11T09:36:38;75.03;;;36.70;;
12350;SDS011;6240;51.538;7.696;2023-02-11T09:39:06;73.70;;;38.13;;
12350;SDS011;6240;51.538;7.696;2023-02-11T09:44:20;69.60;;;37.03;;
12350;SDS011;6240;51.538;7.696;2023-02-11T09:46:49;69.33;;;37.00;;
12350;SDS011;6240;51.538;7.696;2023-02-11T09:49:21;68.37;;;36.83;;
12350;SDS011;6240;51.538;7.696;2023-02-11T09:51:52;72.67;;;39.47;;
12350;SDS011;6240;51.538;7.696;2023-02-11T09:54:30;76.43;;;36.60;;
12350;SDS011;6240;51.538;7.696;2023-02-11T09:56:59;72.00;;;38.27;;
12350;SDS011;6240;51.538;7.696;2023-02-11T09:59:30;74.20;;;37.93;;
12350;SDS011;6240;51.538;7.696;2023-02-11T10:01:59;68.70;;;36.80;;
12350;SDS011;6240;51.538;7.696;2023-02-11T10:04:32;76.13;;;39.17;;
12350;SDS011;6240;51.538;7.696;2023-02-11T10:07:06;73.30;;;37.27;;
12350;SDS011;6240;51.538;7.696;2023-02-11T10:09:41;72.33;;;37.40;;
12350;SDS011;6240;51.538;7.696;2023-02-11T10:12:21;71.27;;;37.83;;
12350;SDS011;6240;51.538;7.696;2023-02-11T10:15:01;74.53;;;37.17;;
12350;SDS011;6240;51.538;7.696;2023-02-11T10:17:32;74.67;;;38.10;;
12350;SDS011;6240;51.538;7.696;2023-02-11T10:20:03;66.33;;;35.57;;
12350;SDS011;6240;51.538;7.696;2023-02-11T10:22:34;71.37;;;37.47;;
12350;SDS011;6240;51.538;7.696;2023-02-11T10:25:07;72.83;;;37.57;;
12350;SDS011;6240;51.538;7.696;2023-02-11T10:27:43;66.43;;;37.43;;
12350;SDS011;6240;51.538;7.696;2023-02-11T10:30:18;70.70;;;36.90;;
12350;SDS011;6240;51.538;7.696;2023-02-11T10:32:47;66.17;;;36.83;;
12350;SDS011;6240;51.538;7.696;2023-02-11T10:35:16;74.00;;;37.03;;
12350;SDS011;6240;51.538;7.696;2023-02-11T10:37:45;74.10;;;36.97;;
12350;SDS011;6240;51.538;7.696;2023-02-11T10:40:13;70.50;;;36.87;;
12350;SDS011;6240;51.538;7.696;2023-02-11T10:42:40;72.50;;;38.30;;
12350;SDS011;6240;51.538;7.696;2023-02-11T10:45:09;69.27;;;37.70;;
12350;SDS011;6240;51.538;7.696;2023-02-11T10:47:43;72.67;;;37.17;;
12350;SDS011;6240;51.538;7.696;2023-02-11T10:50:17;67.57;;;36.67;;
12350;SDS011;6240;51.538;7.696;2023-02-11T10:52:45;78.23;;;38.93;;
12350;SDS011;6240;51.538;7.696;2023-02-11T10:55:14;69.23;;;36.73;;
12350;SDS011;6240;51.538;7.696;2023-02-11T10:57:42;70.57;;;37.13;;
12350;SDS011;6240;51.538;7.696;2023-02-11T11:00:20;73.57;;;34.93;;
12350;SDS011;6240;51.538;7.696;2023-02-11T11:02:54;68.90;;;36.67;;
12350;SDS011;6240;51.538;7.696;2023-02-11T11:05:24;73.13;;;36.47;;
12350;SDS011;6240;51.538;7.696;2023-02-11T11:07:53;68.63;;;35.50;;
12350;SDS011;6240;51.538;7.696;2023-02-11T11:10:25;64.70;;;35.23;;
12350;SDS011;6240;51.538;7.696;2023-02-11T11:12:54;64.77;;;34.90;;
12350;SDS011;6240;51.538;7.696;2023-02-11T11:15:24;66.97;;;36.00;;
12350;SDS011;6240;51.538;7.696;2023-02-11T11:18:14;63.47;;;36.63;;
12350;SDS011;6240;51.538;7.696;2023-02-11T11:20:54;73.13;;;37.93;;
12350;SDS011;6240;51.538;7.696;2023-02-11T11:23:25;69.27;;;36.33;;
12350;SDS011;6240;51.538;7.696;2023-02-11T11:26:02;72.50;;;36.03;;
12350;SDS011;6240;51.538;7.696;2023-02-11T11:28:30;70.30;;;38.57;;
12350;SDS011;6240;51.538;7.696;2023-02-11T11:31:00;67.00;;;36.13;;
12350;SDS011;6240;51.538;7.696;2023-02-11T11:33:30;63.03;;;33.63;;
12350;SDS011;6240;51.538;7.696;2023-02-11T11:36:00;67.63;;;35.50;;
12350;SDS011;6240;51.538;7.696;2023-02-11T11:38:29;69.63;;;36.30;;
12350;SDS011;6240;51.538;7.696;2023-02-11T11:41:17;66.97;;;34.83;;
12350;SDS011;6240;51.538;7.696;2023-02-11T11:43:54;74.03;;;37.93;;
12350;SDS011;6240;51.538;7.696;2023-02-11T11:46:22;75.10;;;35.97;;
12350;SDS011;6240;51.538;7.696;2023-02-11T11:48:51;76.63;;;37.10;;
12350;SDS011;6240;51.538;7.696;2023-02-11T11:51:20;78.73;;;38.33;;
12350;SDS011;6240;51.538;7.696;2023-02-11T11:53:51;75.00;;;37.20;;
12350;SDS011;6240;51.538;7.696;2023-02-11T11:56:21;70.70;;;37.40;;
12350;SDS011;6240;51.538;7.696;2023-02-11T11:58:48;73.23;;;37.93;;
12350;SDS011;6240;51.538;7.696;2023-02-11T12:01:19;71.23;;;38.77;;
12350;SDS011;6240;51.538;7.696;2023-02-11T12:04:00;82.87;;;38.47;;
12350;SDS011;6240;51.538;7.696;2023-02-11T12:06:34;78.07;;;37.93;;
12350;SDS011;6240;51.538;7.696;2023-02-11T12:09:08;80.87;;;39.77;;
12350;SDS011;6240;51.538;7.696;2023-02-11T12:11:46;77.83;;;39.93;;
12350;SDS011;6240;51.538;7.696;2023-02-11T12:14:21;79.37;;;38.87;;
12350;SDS011;6240;51.538;7.696;2023-02-11T12:16:52;74.63;;;39.07;;
12350;SDS011;6240;51.538;7.696;2023-02-11T12:19:32;78.97;;;39.50;;
12350;SDS011;6240;51.538;7.696;2023-02-11T12:22:08;83.87;;;40.60;;
12350;SDS011;6240;51.538;7.696;2023-02-11T12:24:40;79.57;;;39.13;;
12350;SDS011;6240;51.538;7.696;2023-02-11T12:27:12;78.47;;;40.00;;
12350;SDS011;6240;51.538;7.696;2023-02-11T12:29:46;81.60;;;40.50;;
12350;SDS011;6240;51.538;7.696;2023-02-11T12:32:20;80.67;;;40.90;;
12350;SDS011;6240;51.538;7.696;2023-02-11T12:37:44;82.57;;;41.03;;
12350;SDS011;6240;51.538;7.696;2023-02-11T12:40:14;76.23;;;39.93;;
12350;SDS011;6240;51.538;7.696;2023-02-11T12:42:51;79.87;;;40.70;;
12350;SDS011;6240;51.538;7.696;2023-02-11T12:48:29;85.57;;;42.10;;
12350;SDS011;6240;51.538;7.696;2023-02-11T12:51:01;85.57;;;41.77;;
12350;SDS011;6240;51.538;7.696;2023-02-11T12:53:36;80.60;;;40.77;;
12350;SDS011;6240;51.538;7.696;2023-02-11T12:56:09;77.73;;;41.87;;
12350;SDS011;6240;51.538;7.696;2023-02-11T12:58:38;80.20;;;41.37;;
12350;SDS011;6240;51.538;7.696;2023-02-11T13:01:07;86.90;;;42.10;;
12350;SDS011;6240;51.538;7.696;2023-02-11T13:03:36;78.83;;;41.17;;
12350;SDS011;6240;51.538;7.696;2023-02-11T13:06:06;75.33;;;40.63;;
12350;SDS011;6240;51.538;7.696;2023-02-11T13:08:35;84.70;;;42.93;;
12350;SDS011;6240;51.538;7.696;2023-02-11T13:11:06;84.87;;;43.00;;
12350;SDS011;6240;51.538;7.696;2023-02-11T13:13:37;84.00;;;41.20;;
12350;SDS011;6240;51.538;7.696;2023-02-11T13:16:06;79.97;;;42.30;;
12350;SDS011;6240;51.538;7.696;2023-02-11T13:18:39;81.63;;;42.30;;
12350;SDS011;6240;51.538;7.696;2023-02-11T13:24:07;85.93;;;45.23;;
12350;SDS011;6240;51.538;7.696;2023-02-11T13:26:38;75.40;;;42.57;;
12350;SDS011;6240;51.538;7.696;2023-02-11T13:29:10;86.53;;;44.60;;
12350;SDS011;6240;51.538;7.696;2023-02-11T13:31:42;82.00;;;42.50;;
12350;SDS011;6240;51.538;7.696;2023-02-11T13:34:25;79.73;;;43.63;;
12350;SDS011;6240;51.538;7.696;2023-02-11T13:36:53;79.27;;;43.53;;
12350;SDS011;6240;51.538;7.696;2023-02-11T13:39:23;80.47;;;42.60;;
12350;SDS011;6240;51.538;7.696;2023-02-11T13:42:00;82.80;;;43.77;;
12350;SDS011;6240;51.538;7.696;2023-02-11T13:44:31;82.73;;;43.73;;
12350;SDS011;6240;51.538;7.696;2023-02-11T13:47:00;84.97;;;44.07;;
12350;SDS011;6240;51.538;7.696;2023-02-11T13:49:33;89.50;;;45.80;;
12350;SDS011;6240;51.538;7.696;2023-02-11T13:52:02;87.33;;;44.80;;
12350;SDS011;6240;51.538;7.696;2023-02-11T13:54:33;84.30;;;44.97;;
12350;SDS011;6240;51.538;7.696;2023-02-11T13:59:48;88.33;;;44.93;;
12350;SDS011;6240;51.538;7.696;2023-02-11T14:02:26;84.23;;;44.50;;
12350;SDS011;6240;51.538;7.696;2023-02-11T14:05:27;85.30;;;43.33;;
12350;SDS011;6240;51.538;7.696;2023-02-11T14:08:23;82.80;;;43.77;;
12350;SDS011;6240;51.538;7.696;2023-02-11T14:11:39;79.17;;;43.17;;
12350;SDS011;6240;51.538;7.696;2023-02-11T14:14:01;84.37;;;44.43;;
12350;SDS011;6240;51.538;7.696;2023-02-11T14:16:29;91.17;;;45.60;;
12350;SDS011;6240;51.538;7.696;2023-02-11T14:19:00;81.73;;;43.37;;
12350;SDS011;6240;51.538;7.696;2023-02-11T14:21:30;84.10;;;44.03;;
12350;SDS011;6240;51.538;7.696;2023-02-11T14:26:44;79.93;;;43.73;;
12350;SDS011;6240;51.538;7.696;2023-02-11T14:29:14;82.20;;;43.67;;
12350;SDS011;6240;51.538;7.696;2023-02-11T14:31:44;77.93;;;43.17;;
12350;SDS011;6240;51.538;7.696;2023-02-11T14:34:30;79.17;;;42.60;;
12350;SDS011;6240;51.538;7.696;2023-02-11T14:37:08;80.27;;;44.40;;
12350;SDS011;6240;51.538;7.696;2023-02-11T14:39:42;75.83;;;41.67;;
12350;SDS011;6240;51.538;7.696;2023-02-11T14:42:16;71.37;;;42.90;;
12350;SDS011;6240;51.538;7.696;2023-02-11T14:44:44;74.00;;;42.17;;
12350;SDS011;6240;51.538;7.696;2023-02-11T14:47:12;72.87;;;42.27;;
12350;SDS011;6240;51.538;7.696;2023-02-11T14:49:45;72.50;;;40.80;;
12350;SDS011;6240;51.538;7.696;2023-02-11T14:52:15;78.23;;;42.33;;
12350;SDS011;6240;51.538;7.696;2023-02-11T14:54:46;76.63;;;42.77;;
12350;SDS011;6240;51.538;7.696;2023-02-11T14:57:16;76.00;;;43.47;;
12350;SDS011;6240;51.538;7.696;2023-02-11T14:59:51;70.10;;;40.70;;
12350;SDS011;6240;51.538;7.696;2023-02-11T15:02:19;75.67;;;42.30;;
12350;SDS011;6240;51.538;7.696;2023-02-11T15:04:46;71.47;;;40.97;;
12350;SDS011;6240;51.538;7.696;2023-02-11T15:07:14;73.80;;;41.37;;
12350;SDS011;6240;51.538;7.696;2023-02-11T15:09:41;71.27;;;40.27;;
12350;SDS011;6240;51.538;7.696;2023-02-11T15:12:13;68.27;;;40.70;;